This is the latest recevied weather packets stored in our database for station/object DL4MGC-10. If no packets are shown the sender has not sent any weather packets the latest 10 day(s).
| Time | Temp. | Humidity | Pressure | Rain* | Wind** | Luminosity | Snow |
|---|---|---|---|---|---|---|---|
| 1777683245 | 8.89° C | 72% | 1023.2 hPa | - | - | - | - |
| 1777682345 | 9.44° C | 72% | 1023.3 hPa | - | - | - | - |
| 1777681445 | 9.44° C | 71% | 1023.4 hPa | - | - | - | - |
| 1777680545 | 9.44° C | 70% | 1023.4 hPa | - | - | - | - |
| 1777679645 | 9.44° C | 69% | 1023.6 hPa | - | - | - | - |
| 1777678745 | 10° C | 69% | 1023.6 hPa | - | - | - | - |
| 1777677844 | 9.44° C | 72% | 1023.7 hPa | - | - | - | - |
| 1777676944 | 10.56° C | 69% | 1023.9 hPa | - | - | - | - |
| 1777676044 | 10.56° C | 67% | 1023.8 hPa | - | - | - | - |
| 1777675144 | 11.11° C | 67% | 1024 hPa | - | - | - | - |
| 1777674245 | 11.11° C | 68% | 1024.1 hPa | - | - | - | - |
| 1777673344 | 11.11° C | 65% | 1024.1 hPa | - | - | - | - |
| 1777672444 | 11.11° C | 67% | 1023.9 hPa | - | - | - | - |
| 1777671544 | 11.11° C | 69% | 1024.1 hPa | - | - | - | - |
| 1777670644 | 12.22° C | 65% | 1024.2 hPa | - | - | - | - |
| 1777669744 | 12.78° C | 65% | 1024.1 hPa | - | - | - | - |
| 1777668844 | 12.78° C | 65% | 1024.1 hPa | - | - | - | - |
| 1777667943 | 13.33° C | 64% | 1024.2 hPa | - | - | - | - |
| 1777667043 | 13.89° C | 61% | 1024.3 hPa | - | - | - | - |
| 1777666143 | 13.89° C | 59% | 1024.1 hPa | - | - | - | - |
| 1777665243 | 13.89° C | 57% | 1024.1 hPa | - | - | - | - |
| 1777664343 | 15.56° C | 52% | 1024.1 hPa | - | - | - | - |
| 1777663443 | 16.11° C | 51% | 1023.9 hPa | - | - | - | - |
| 1777662543 | 16.67° C | 49% | 1024.1 hPa | - | - | - | - |
| 1777661643 | 17.78° C | 46% | 1023.9 hPa | - | - | - | - |
* Rain since midnight (hover to see other rain measurements)
** Current wind speed in m/s (hover to see current wind gust speed)